sensor_id;sensor_type;location;lat;lon;timestamp;P1;durP1;ratioP1;P2;durP2;ratioP2
37241;SDS011;23135;51.078;12.108;2023-10-31T00:00:24;12.15;;;5.22;;
37241;SDS011;23135;51.078;12.108;2023-10-31T00:02:50;8.52;;;4.88;;
37241;SDS011;23135;51.078;12.108;2023-10-31T00:05:16;10.70;;;4.15;;
37241;SDS011;23135;51.078;12.108;2023-10-31T00:07:41;7.07;;;4.82;;
37241;SDS011;23135;51.078;12.108;2023-10-31T00:10:07;6.30;;;4.03;;
37241;SDS011;23135;51.078;12.108;2023-10-31T00:12:34;6.55;;;3.88;;
37241;SDS011;23135;51.078;12.108;2023-10-31T00:14:59;9.48;;;3.88;;
37241;SDS011;23135;51.078;12.108;2023-10-31T00:17:25;9.63;;;4.65;;
37241;SDS011;23135;51.078;12.108;2023-10-31T00:19:50;7.05;;;3.90;;
37241;SDS011;23135;51.078;12.108;2023-10-31T00:22:16;4.05;;;3.55;;
37241;SDS011;23135;51.078;12.108;2023-10-31T00:24:42;6.93;;;4.13;;
37241;SDS011;23135;51.078;12.108;2023-10-31T00:27:08;5.22;;;4.28;;
37241;SDS011;23135;51.078;12.108;2023-10-31T00:29:34;8.02;;;4.10;;
37241;SDS011;23135;51.078;12.108;2023-10-31T00:31:59;6.65;;;4.35;;
37241;SDS011;23135;51.078;12.108;2023-10-31T00:34:25;5.13;;;3.67;;
37241;SDS011;23135;51.078;12.108;2023-10-31T00:36:50;5.70;;;4.32;;
37241;SDS011;23135;51.078;12.108;2023-10-31T00:39:16;7.00;;;4.47;;
37241;SDS011;23135;51.078;12.108;2023-10-31T00:41:45;8.75;;;4.95;;
37241;SDS011;23135;51.078;12.108;2023-10-31T00:44:11;9.35;;;5.30;;
37241;SDS011;23135;51.078;12.108;2023-10-31T00:46:37;10.68;;;4.90;;
37241;SDS011;23135;51.078;12.108;2023-10-31T00:49:03;6.13;;;4.90;;
37241;SDS011;23135;51.078;12.108;2023-10-31T00:51:28;11.27;;;5.63;;
37241;SDS011;23135;51.078;12.108;2023-10-31T00:53:54;8.45;;;5.65;;
37241;SDS011;23135;51.078;12.108;2023-10-31T00:56:19;9.27;;;5.10;;
37241;SDS011;23135;51.078;12.108;2023-10-31T00:58:45;10.57;;;4.97;;
37241;SDS011;23135;51.078;12.108;2023-10-31T01:01:11;6.93;;;4.68;;
37241;SDS011;23135;51.078;12.108;2023-10-31T01:03:36;8.70;;;5.45;;
37241;SDS011;23135;51.078;12.108;2023-10-31T01:06:02;7.97;;;5.40;;
37241;SDS011;23135;51.078;12.108;2023-10-31T01:08:28;9.32;;;5.65;;
37241;SDS011;23135;51.078;12.108;2023-10-31T01:10:54;7.13;;;5.22;;
37241;SDS011;23135;51.078;12.108;2023-10-31T01:13:20;10.45;;;5.20;;
37241;SDS011;23135;51.078;12.108;2023-10-31T01:15:46;7.25;;;5.55;;
37241;SDS011;23135;51.078;12.108;2023-10-31T01:18:12;8.38;;;5.47;;
37241;SDS011;23135;51.078;12.108;2023-10-31T01:20:37;9.15;;;6.47;;
37241;SDS011;23135;51.078;12.108;2023-10-31T01:23:03;11.18;;;6.65;;
37241;SDS011;23135;51.078;12.108;2023-10-31T01:25:29;10.02;;;5.90;;
37241;SDS011;23135;51.078;12.108;2023-10-31T01:27:54;7.82;;;5.90;;
37241;SDS011;23135;51.078;12.108;2023-10-31T01:30:20;10.13;;;5.22;;
37241;SDS011;23135;51.078;12.108;2023-10-31T01:32:45;8.73;;;5.63;;
37241;SDS011;23135;51.078;12.108;2023-10-31T01:35:11;13.20;;;7.18;;
37241;SDS011;23135;51.078;12.108;2023-10-31T01:37:37;12.95;;;5.72;;
37241;SDS011;23135;51.078;12.108;2023-10-31T01:40:03;11.13;;;6.43;;
37241;SDS011;23135;51.078;12.108;2023-10-31T01:42:29;11.73;;;5.95;;
37241;SDS011;23135;51.078;12.108;2023-10-31T01:44:54;7.60;;;5.22;;
37241;SDS011;23135;51.078;12.108;2023-10-31T01:47:20;6.22;;;4.68;;
37241;SDS011;23135;51.078;12.108;2023-10-31T01:49:47;8.93;;;5.65;;
37241;SDS011;23135;51.078;12.108;2023-10-31T01:52:13;9.55;;;5.72;;
37241;SDS011;23135;51.078;12.108;2023-10-31T01:54:38;7.28;;;5.32;;
37241;SDS011;23135;51.078;12.108;2023-10-31T01:57:04;6.57;;;4.65;;
37241;SDS011;23135;51.078;12.108;2023-10-31T01:59:30;7.28;;;5.05;;
37241;SDS011;23135;51.078;12.108;2023-10-31T02:01:56;7.80;;;4.43;;
37241;SDS011;23135;51.078;12.108;2023-10-31T02:04:23;6.68;;;3.60;;
37241;SDS011;23135;51.078;12.108;2023-10-31T02:06:49;5.63;;;2.95;;
37241;SDS011;23135;51.078;12.108;2023-10-31T02:09:15;4.65;;;2.78;;
37241;SDS011;23135;51.078;12.108;2023-10-31T02:11:40;7.47;;;3.08;;
37241;SDS011;23135;51.078;12.108;2023-10-31T02:14:06;5.20;;;2.40;;
37241;SDS011;23135;51.078;12.108;2023-10-31T02:16:31;3.47;;;2.47;;
37241;SDS011;23135;51.078;12.108;2023-10-31T02:18:57;1.70;;;1.45;;
37241;SDS011;23135;51.078;12.108;2023-10-31T02:21:23;4.57;;;1.10;;
37241;SDS011;23135;51.078;12.108;2023-10-31T02:24:01;2.65;;;1.65;;
37241;SDS011;23135;51.078;12.108;2023-10-31T02:26:34;4.82;;;1.75;;
37241;SDS011;23135;51.078;12.108;2023-10-31T02:31:26;4.82;;;1.58;;
37241;SDS011;23135;51.078;12.108;2023-10-31T02:33:52;4.35;;;2.03;;
37241;SDS011;23135;51.078;12.108;2023-10-31T02:36:18;2.05;;;1.88;;
37241;SDS011;23135;51.078;12.108;2023-10-31T02:38:44;3.53;;;2.08;;
37241;SDS011;23135;51.078;12.108;2023-10-31T02:41:10;3.17;;;2.08;;
37241;SDS011;23135;51.078;12.108;2023-10-31T02:43:35;2.83;;;1.70;;
37241;SDS011;23135;51.078;12.108;2023-10-31T02:46:01;2.83;;;1.73;;
37241;SDS011;23135;51.078;12.108;2023-10-31T02:48:27;3.10;;;1.75;;
37241;SDS011;23135;51.078;12.108;2023-10-31T02:50:54;2.10;;;1.20;;
37241;SDS011;23135;51.078;12.108;2023-10-31T02:53:19;1.75;;;1.48;;
37241;SDS011;23135;51.078;12.108;2023-10-31T02:55:45;4.85;;;2.28;;
37241;SDS011;23135;51.078;12.108;2023-10-31T02:58:10;4.75;;;2.10;;
37241;SDS011;23135;51.078;12.108;2023-10-31T03:00:36;4.30;;;2.40;;
37241;SDS011;23135;51.078;12.108;2023-10-31T03:03:02;2.50;;;2.30;;
37241;SDS011;23135;51.078;12.108;2023-10-31T03:05:28;3.00;;;2.40;;
37241;SDS011;23135;51.078;12.108;2023-10-31T03:07:54;5.60;;;3.13;;
37241;SDS011;23135;51.078;12.108;2023-10-31T03:10:20;3.47;;;2.22;;
37241;SDS011;23135;51.078;12.108;2023-10-31T03:12:46;1.98;;;1.00;;
37241;SDS011;23135;51.078;12.108;2023-10-31T03:15:12;1.52;;;1.20;;
37241;SDS011;23135;51.078;12.108;2023-10-31T03:17:38;7.45;;;1.33;;
37241;SDS011;23135;51.078;12.108;2023-10-31T03:20:04;3.80;;;0.63;;
37241;SDS011;23135;51.078;12.108;2023-10-31T03:22:30;1.17;;;0.90;;
37241;SDS011;23135;51.078;12.108;2023-10-31T03:24:55;1.30;;;0.75;;
37241;SDS011;23135;51.078;12.108;2023-10-31T03:27:21;0.40;;;0.40;;
37241;SDS011;23135;51.078;12.108;2023-10-31T03:29:46;1.10;;;0.50;;
37241;SDS011;23135;51.078;12.108;2023-10-31T03:32:12;1.40;;;0.22;;
37241;SDS011;23135;51.078;12.108;2023-10-31T03:34:38;2.42;;;0.55;;
37241;SDS011;23135;51.078;12.108;2023-10-31T03:37:04;0.85;;;0.43;;
37241;SDS011;23135;51.078;12.108;2023-10-31T03:39:30;1.65;;;0.28;;
37241;SDS011;23135;51.078;12.108;2023-10-31T03:41:55;2.05;;;0.40;;
37241;SDS011;23135;51.078;12.108;2023-10-31T03:44:21;3.17;;;0.40;;
37241;SDS011;23135;51.078;12.108;2023-10-31T03:46:46;0.95;;;0.25;;
37241;SDS011;23135;51.078;12.108;2023-10-31T03:49:12;0.95;;;0.30;;
37241;SDS011;23135;51.078;12.108;2023-10-31T03:51:38;2.13;;;0.40;;
37241;SDS011;23135;51.078;12.108;2023-10-31T03:54:03;4.55;;;0.57;;
37241;SDS011;23135;51.078;12.108;2023-10-31T03:56:29;0.88;;;0.68;;
37241;SDS011;23135;51.078;12.108;2023-10-31T03:58:55;1.70;;;0.95;;
37241;SDS011;23135;51.078;12.108;2023-10-31T04:01:20;2.72;;;0.70;;
37241;SDS011;23135;51.078;12.108;2023-10-31T04:03:46;0.93;;;0.50;;
37241;SDS011;23135;51.078;12.108;2023-10-31T04:06:12;1.25;;;0.68;;
37241;SDS011;23135;51.078;12.108;2023-10-31T04:08:37;1.38;;;0.32;;
37241;SDS011;23135;51.078;12.108;2023-10-31T04:11:03;0.30;;;0.17;;
37241;SDS011;23135;51.078;12.108;2023-10-31T04:13:29;1.25;;;0.20;;
37241;SDS011;23135;51.078;12.108;2023-10-31T04:15:54;0.57;;;0.10;;
37241;SDS011;23135;51.078;12.108;2023-10-31T04:18:20;2.10;;;1.08;;
37241;SDS011;23135;51.078;12.108;2023-10-31T04:20:45;0.85;;;0.60;;
37241;SDS011;23135;51.078;12.108;2023-10-31T04:23:11;0.57;;;0.30;;
37241;SDS011;23135;51.078;12.108;2023-10-31T04:25:37;0.90;;;0.15;;
37241;SDS011;23135;51.078;12.108;2023-10-31T04:28:03;0.00;;;0.00;;
37241;SDS011;23135;51.078;12.108;2023-10-31T04:30:29;0.10;;;0.03;;
37241;SDS011;23135;51.078;12.108;2023-10-31T04:32:54;0.10;;;0.00;;
37241;SDS011;23135;51.078;12.108;2023-10-31T04:35:20;0.35;;;0.03;;
37241;SDS011;23135;51.078;12.108;2023-10-31T04:37:46;5.10;;;0.00;;
37241;SDS011;23135;51.078;12.108;2023-10-31T04:40:11;2.95;;;0.00;;
37241;SDS011;23135;51.078;12.108;2023-10-31T04:42:40;1.45;;;0.00;;
37241;SDS011;23135;51.078;12.108;2023-10-31T04:45:07;0.50;;;0.00;;
37241;SDS011;23135;51.078;12.108;2023-10-31T04:47:33;0.43;;;0.00;;
37241;SDS011;23135;51.078;12.108;2023-10-31T04:49:58;2.85;;;0.30;;
37241;SDS011;23135;51.078;12.108;2023-10-31T04:52:24;0.55;;;0.00;;
37241;SDS011;23135;51.078;12.108;2023-10-31T04:54:51;2.92;;;0.00;;
37241;SDS011;23135;51.078;12.108;2023-10-31T04:57:16;0.25;;;0.00;;
37241;SDS011;23135;51.078;12.108;2023-10-31T04:59:42;0.00;;;0.00;;
37241;SDS011;23135;51.078;12.108;2023-10-31T05:02:08;0.00;;;0.00;;
37241;SDS011;23135;51.078;12.108;2023-10-31T05:04:33;0.10;;;0.00;;
37241;SDS011;23135;51.078;12.108;2023-10-31T05:07:02;0.55;;;0.10;;
37241;SDS011;23135;51.078;12.108;2023-10-31T05:09:28;0.00;;;0.00;;
37241;SDS011;23135;51.078;12.108;2023-10-31T05:11:54;0.00;;;0.00;;
37241;SDS011;23135;51.078;12.108;2023-10-31T05:14:20;1.55;;;0.00;;
37241;SDS011;23135;51.078;12.108;2023-10-31T05:16:45;0.17;;;0.15;;
37241;SDS011;23135;51.078;12.108;2023-10-31T05:19:11;1.65;;;0.00;;
37241;SDS011;23135;51.078;12.108;2023-10-31T05:21:37;0.00;;;0.00;;
37241;SDS011;23135;51.078;12.108;2023-10-31T05:24:02;0.98;;;0.00;;
37241;SDS011;23135;51.078;12.108;2023-10-31T05:26:28;0.13;;;0.00;;
37241;SDS011;23135;51.078;12.108;2023-10-31T05:28:55;0.00;;;0.00;;
37241;SDS011;23135;51.078;12.108;2023-10-31T05:31:22;0.65;;;0.00;;
37241;SDS011;23135;51.078;12.108;2023-10-31T05:33:48;0.17;;;0.00;;
37241;SDS011;23135;51.078;12.108;2023-10-31T05:36:20;0.25;;;0.00;;
37241;SDS011;23135;51.078;12.108;2023-10-31T05:38:47;0.00;;;0.00;;
37241;SDS011;23135;51.078;12.108;2023-10-31T05:41:13;0.65;;;0.00;;
37241;SDS011;23135;51.078;12.108;2023-10-31T05:43:39;0.10;;;0.00;;
37241;SDS011;23135;51.078;12.108;2023-10-31T05:46:05;0.85;;;0.00;;
37241;SDS011;23135;51.078;12.108;2023-10-31T05:48:31;0.00;;;0.00;;
37241;SDS011;23135;51.078;12.108;2023-10-31T05:50:57;1.35;;;0.00;;
37241;SDS011;23135;51.078;12.108;2023-10-31T05:53:23;2.05;;;0.00;;
37241;SDS011;23135;51.078;12.108;2023-10-31T05:55:48;0.75;;;0.00;;
37241;SDS011;23135;51.078;12.108;2023-10-31T05:58:14;0.10;;;0.00;;
37241;SDS011;23135;51.078;12.108;2023-10-31T06:00:39;0.00;;;0.00;;
37241;SDS011;23135;51.078;12.108;2023-10-31T06:03:05;0.00;;;0.00;;
37241;SDS011;23135;51.078;12.108;2023-10-31T06:05:31;0.00;;;0.00;;
37241;SDS011;23135;51.078;12.108;2023-10-31T06:07:56;1.27;;;0.00;;
37241;SDS011;23135;51.078;12.108;2023-10-31T06:10:22;0.13;;;0.00;;
37241;SDS011;23135;51.078;12.108;2023-10-31T06:12:48;0.00;;;0.00;;
37241;SDS011;23135;51.078;12.108;2023-10-31T06:15:13;0.75;;;0.00;;
37241;SDS011;23135;51.078;12.108;2023-10-31T06:17:39;0.00;;;0.00;;
37241;SDS011;23135;51.078;12.108;2023-10-31T06:20:06;0.00;;;0.00;;
37241;SDS011;23135;51.078;12.108;2023-10-31T06:22:33;17.17;;;0.03;;
37241;SDS011;23135;51.078;12.108;2023-10-31T06:24:58;3.10;;;0.00;;
37241;SDS011;23135;51.078;12.108;2023-10-31T06:27:24;0.80;;;0.10;;
37241;SDS011;23135;51.078;12.108;2023-10-31T06:29:50;0.08;;;0.00;;
37241;SDS011;23135;51.078;12.108;2023-10-31T06:32:15;0.28;;;0.00;;
37241;SDS011;23135;51.078;12.108;2023-10-31T06:34:41;1.42;;;0.00;;
37241;SDS011;23135;51.078;12.108;2023-10-31T06:37:07;2.95;;;0.00;;
37241;SDS011;23135;51.078;12.108;2023-10-31T06:39:32;0.00;;;0.00;;
37241;SDS011;23135;51.078;12.108;2023-10-31T06:41:58;0.28;;;0.00;;
37241;SDS011;23135;51.078;12.108;2023-10-31T06:44:23;0.45;;;0.00;;
37241;SDS011;23135;51.078;12.108;2023-10-31T06:46:49;1.17;;;0.00;;
37241;SDS011;23135;51.078;12.108;2023-10-31T06:49:15;0.00;;;0.00;;
37241;SDS011;23135;51.078;12.108;2023-10-31T06:51:41;0.00;;;0.00;;
37241;SDS011;23135;51.078;12.108;2023-10-31T06:54:06;3.42;;;0.35;;
37241;SDS011;23135;51.078;12.108;2023-10-31T06:56:32;5.00;;;0.43;;
37241;SDS011;23135;51.078;12.108;2023-10-31T06:58:58;0.00;;;0.00;;
37241;SDS011;23135;51.078;12.108;2023-10-31T07:01:23;2.70;;;0.00;;
37241;SDS011;23135;51.078;12.108;2023-10-31T07:03:50;0.32;;;0.00;;
37241;SDS011;23135;51.078;12.108;2023-10-31T07:06:15;0.00;;;0.00;;
37241;SDS011;23135;51.078;12.108;2023-10-31T07:08:41;0.00;;;0.00;;
37241;SDS011;23135;51.078;12.108;2023-10-31T07:11:06;0.00;;;0.00;;
37241;SDS011;23135;51.078;12.108;2023-10-31T07:13:32;0.10;;;0.00;;
37241;SDS011;23135;51.078;12.108;2023-10-31T07:15:58;2.00;;;0.00;;
37241;SDS011;23135;51.078;12.108;2023-10-31T07:18:23;0.00;;;0.00;;
37241;SDS011;23135;51.078;12.108;2023-10-31T07:20:49;0.22;;;0.00;;
37241;SDS011;23135;51.078;12.108;2023-10-31T07:23:14;0.50;;;0.00;;
37241;SDS011;23135;51.078;12.108;2023-10-31T07:25:40;0.63;;;0.10;;
37241;SDS011;23135;51.078;12.108;2023-10-31T07:28:06;0.00;;;0.00;;
37241;SDS011;23135;51.078;12.108;2023-10-31T07:30:32;1.48;;;0.00;;
37241;SDS011;23135;51.078;12.108;2023-10-31T07:32:58;0.00;;;0.00;;
37241;SDS011;23135;51.078;12.108;2023-10-31T07:35:23;0.00;;;0.00;;
37241;SDS011;23135;51.078;12.108;2023-10-31T07:37:49;0.00;;;0.00;;
37241;SDS011;23135;51.078;12.108;2023-10-31T07:40:14;0.20;;;0.00;;
37241;SDS011;23135;51.078;12.108;2023-10-31T07:42:40;0.30;;;0.00;;
37241;SDS011;23135;51.078;12.108;2023-10-31T07:45:06;0.40;;;0.00;;
37241;SDS011;23135;51.078;12.108;2023-10-31T07:47:32;2.55;;;0.05;;
37241;SDS011;23135;51.078;12.108;2023-10-31T07:49:57;6.65;;;0.10;;
37241;SDS011;23135;51.078;12.108;2023-10-31T07:52:24;0.32;;;0.32;;
37241;SDS011;23135;51.078;12.108;2023-10-31T07:54:49;0.40;;;0.00;;
37241;SDS011;23135;51.078;12.108;2023-10-31T07:57:15;1.55;;;0.00;;
37241;SDS011;23135;51.078;12.108;2023-10-31T07:59:40;0.00;;;0.00;;
37241;SDS011;23135;51.078;12.108;2023-10-31T08:02:06;0.20;;;0.00;;
37241;SDS011;23135;51.078;12.108;2023-10-31T08:04:31;0.00;;;0.00;;
37241;SDS011;23135;51.078;12.108;2023-10-31T08:06:57;0.00;;;0.00;;
37241;SDS011;23135;51.078;12.108;2023-10-31T08:09:23;3.03;;;0.00;;
37241;SDS011;23135;51.078;12.108;2023-10-31T08:11:48;0.00;;;0.00;;
37241;SDS011;23135;51.078;12.108;2023-10-31T08:14:14;0.03;;;0.00;;
37241;SDS011;23135;51.078;12.108;2023-10-31T08:16:43;0.00;;;0.00;;
37241;SDS011;23135;51.078;12.108;2023-10-31T08:19:09;0.00;;;0.00;;
37241;SDS011;23135;51.078;12.108;2023-10-31T08:21:35;0.00;;;0.00;;
37241;SDS011;23135;51.078;12.108;2023-10-31T08:24:03;10.52;;;0.47;;
37241;SDS011;23135;51.078;12.108;2023-10-31T08:26:32;1.55;;;0.85;;
37241;SDS011;23135;51.078;12.108;2023-10-31T08:28:59;0.00;;;0.00;;
37241;SDS011;23135;51.078;12.108;2023-10-31T08:31:25;3.80;;;0.00;;
37241;SDS011;23135;51.078;12.108;2023-10-31T08:33:50;0.00;;;0.00;;
37241;SDS011;23135;51.078;12.108;2023-10-31T08:36:16;3.13;;;0.00;;
37241;SDS011;23135;51.078;12.108;2023-10-31T08:38:42;1.70;;;0.00;;
37241;SDS011;23135;51.078;12.108;2023-10-31T08:41:07;0.30;;;0.00;;
37241;SDS011;23135;51.078;12.108;2023-10-31T08:43:33;0.10;;;0.00;;
37241;SDS011;23135;51.078;12.108;2023-10-31T08:45:59;0.08;;;0.00;;
37241;SDS011;23135;51.078;12.108;2023-10-31T08:48:24;1.88;;;0.00;;
37241;SDS011;23135;51.078;12.108;2023-10-31T08:50:50;0.57;;;0.00;;
37241;SDS011;23135;51.078;12.108;2023-10-31T08:53:16;4.22;;;0.00;;
37241;SDS011;23135;51.078;12.108;2023-10-31T08:55:44;0.00;;;0.00;;
37241;SDS011;23135;51.078;12.108;2023-10-31T08:58:12;0.00;;;0.00;;
37241;SDS011;23135;51.078;12.108;2023-10-31T09:00:39;0.13;;;0.00;;
37241;SDS011;23135;51.078;12.108;2023-10-31T09:03:07;0.00;;;0.00;;
37241;SDS011;23135;51.078;12.108;2023-10-31T09:05:33;0.00;;;0.00;;
37241;SDS011;23135;51.078;12.108;2023-10-31T09:07:58;1.48;;;0.00;;
37241;SDS011;23135;51.078;12.108;2023-10-31T09:10:24;0.00;;;0.00;;
37241;SDS011;23135;51.078;12.108;2023-10-31T09:12:50;0.43;;;0.00;;
37241;SDS011;23135;51.078;12.108;2023-10-31T09:15:15;1.27;;;0.00;;
37241;SDS011;23135;51.078;12.108;2023-10-31T09:17:41;0.20;;;0.20;;
37241;SDS011;23135;51.078;12.108;2023-10-31T09:20:07;0.00;;;0.00;;
37241;SDS011;23135;51.078;12.108;2023-10-31T09:22:33;0.00;;;0.00;;
37241;SDS011;23135;51.078;12.108;2023-10-31T09:24:59;0.00;;;0.00;;
37241;SDS011;23135;51.078;12.108;2023-10-31T09:27:24;1.77;;;0.00;;
37241;SDS011;23135;51.078;12.108;2023-10-31T09:29:50;0.68;;;0.00;;
37241;SDS011;23135;51.078;12.108;2023-10-31T09:32:16;1.45;;;0.00;;
37241;SDS011;23135;51.078;12.108;2023-10-31T09:34:43;0.00;;;0.00;;
37241;SDS011;23135;51.078;12.108;2023-10-31T09:37:08;0.00;;;0.00;;
37241;SDS011;23135;51.078;12.108;2023-10-31T09:39:34;0.08;;;0.00;;
37241;SDS011;23135;51.078;12.108;2023-10-31T09:42:00;0.00;;;0.00;;
37241;SDS011;23135;51.078;12.108;2023-10-31T09:44:26;0.00;;;0.00;;
37241;SDS011;23135;51.078;12.108;2023-10-31T09:46:51;0.35;;;0.00;;
37241;SDS011;23135;51.078;12.108;2023-10-31T09:49:18;0.10;;;0.00;;
37241;SDS011;23135;51.078;12.108;2023-10-31T09:51:44;0.00;;;0.00;;
37241;SDS011;23135;51.078;12.108;2023-10-31T09:54:12;1.25;;;0.00;;
37241;SDS011;23135;51.078;12.108;2023-10-31T09:56:40;1.55;;;0.00;;
37241;SDS011;23135;51.078;12.108;2023-10-31T09:59:06;0.32;;;0.00;;
37241;SDS011;23135;51.078;12.108;2023-10-31T10:01:32;0.80;;;0.00;;
37241;SDS011;23135;51.078;12.108;2023-10-31T10:03:58;1.45;;;0.00;;
37241;SDS011;23135;51.078;12.108;2023-10-31T10:06:24;3.70;;;0.00;;
37241;SDS011;23135;51.078;12.108;2023-10-31T10:08:50;0.00;;;0.00;;
37241;SDS011;23135;51.078;12.108;2023-10-31T10:11:16;0.05;;;0.00;;
37241;SDS011;23135;51.078;12.108;2023-10-31T10:13:41;0.25;;;0.00;;
37241;SDS011;23135;51.078;12.108;2023-10-31T10:16:07;0.00;;;0.00;;
37241;SDS011;23135;51.078;12.108;2023-10-31T10:18:35;0.00;;;0.00;;
37241;SDS011;23135;51.078;12.108;2023-10-31T10:21:03;1.48;;;0.00;;
37241;SDS011;23135;51.078;12.108;2023-10-31T10:23:30;0.00;;;0.00;;
37241;SDS011;23135;51.078;12.108;2023-10-31T10:25:57;0.00;;;0.00;;
37241;SDS011;23135;51.078;12.108;2023-10-31T10:28:24;0.00;;;0.00;;
37241;SDS011;23135;51.078;12.108;2023-10-31T10:30:51;0.00;;;0.00;;
37241;SDS011;23135;51.078;12.108;2023-10-31T10:33:18;0.00;;;0.00;;
37241;SDS011;23135;51.078;12.108;2023-10-31T10:35:44;0.10;;;0.00;;
37241;SDS011;23135;51.078;12.108;2023-10-31T10:38:12;0.90;;;0.00;;
37241;SDS011;23135;51.078;12.108;2023-10-31T10:40:40;0.13;;;0.00;;
37241;SDS011;23135;51.078;12.108;2023-10-31T10:43:13;0.00;;;0.00;;
37241;SDS011;23135;51.078;12.108;2023-10-31T10:45:44;0.50;;;0.00;;
37241;SDS011;23135;51.078;12.108;2023-10-31T10:48:11;0.75;;;0.00;;
37241;SDS011;23135;51.078;12.108;2023-10-31T10:50:44;0.47;;;0.00;;
37241;SDS011;23135;51.078;12.108;2023-10-31T10:53:21;0.00;;;0.00;;
37241;SDS011;23135;51.078;12.108;2023-10-31T10:55:52;0.10;;;0.00;;
37241;SDS011;23135;51.078;12.108;2023-10-31T10:58:55;0.85;;;0.00;;
37241;SDS011;23135;51.078;12.108;2023-10-31T11:01:19;1.88;;;0.40;;
37241;SDS011;23135;51.078;12.108;2023-10-31T11:03:46;1.55;;;0.00;;
37241;SDS011;23135;51.078;12.108;2023-10-31T11:06:12;0.00;;;0.00;;
37241;SDS011;23135;51.078;12.108;2023-10-31T11:08:39;0.00;;;0.00;;
37241;SDS011;23135;51.078;12.108;2023-10-31T11:11:05;0.00;;;0.00;;
37241;SDS011;23135;51.078;12.108;2023-10-31T11:13:31;0.00;;;0.00;;
37241;SDS011;23135;51.078;12.108;2023-10-31T11:15:57;0.00;;;0.00;;
37241;SDS011;23135;51.078;12.108;2023-10-31T11:18:39;0.00;;;0.00;;
37241;SDS011;23135;51.078;12.108;2023-10-31T11:21:05;0.00;;;0.00;;
37241;SDS011;23135;51.078;12.108;2023-10-31T11:23:31;0.10;;;0.00;;
37241;SDS011;23135;51.078;12.108;2023-10-31T11:25:57;0.25;;;0.00;;
37241;SDS011;23135;51.078;12.108;2023-10-31T11:28:23;0.00;;;0.00;;
37241;SDS011;23135;51.078;12.108;2023-10-31T11:30:50;0.05;;;0.00;;
37241;SDS011;23135;51.078;12.108;2023-10-31T11:33:22;0.98;;;0.00;;
37241;SDS011;23135;51.078;12.108;2023-10-31T11:35:49;0.10;;;0.00;;
37241;SDS011;23135;51.078;12.108;2023-10-31T11:38:15;0.00;;;0.00;;
37241;SDS011;23135;51.078;12.108;2023-10-31T11:43:09;0.50;;;0.00;;
37241;SDS011;23135;51.078;12.108;2023-10-31T11:45:42;0.00;;;0.00;;
37241;SDS011;23135;51.078;12.108;2023-10-31T11:48:13;0.40;;;0.00;;
37241;SDS011;23135;51.078;12.108;2023-10-31T11:50:39;0.00;;;0.00;;
37241;SDS011;23135;51.078;12.108;2023-10-31T11:53:06;0.00;;;0.00;;
37241;SDS011;23135;51.078;12.108;2023-10-31T11:55:39;0.00;;;0.00;;
37241;SDS011;23135;51.078;12.108;2023-10-31T11:58:12;0.10;;;0.00;;
37241;SDS011;23135;51.078;12.108;2023-10-31T12:00:39;1.98;;;0.22;;
37241;SDS011;23135;51.078;12.108;2023-10-31T12:03:04;0.05;;;0.00;;
37241;SDS011;23135;51.078;12.108;2023-10-31T12:05:30;1.85;;;0.00;;
37241;SDS011;23135;51.078;12.108;2023-10-31T12:07:56;3.67;;;0.00;;
37241;SDS011;23135;51.078;12.108;2023-10-31T12:10:23;0.57;;;0.00;;
37241;SDS011;23135;51.078;12.108;2023-10-31T12:12:50;0.00;;;0.00;;
37241;SDS011;23135;51.078;12.108;2023-10-31T12:15:16;0.00;;;0.00;;
37241;SDS011;23135;51.078;12.108;2023-10-31T12:17:41;2.25;;;0.03;;
37241;SDS011;23135;51.078;12.108;2023-10-31T12:20:07;0.00;;;0.00;;
37241;SDS011;23135;51.078;12.108;2023-10-31T12:22:34;0.00;;;0.00;;
37241;SDS011;23135;51.078;12.108;2023-10-31T12:25:03;0.00;;;0.00;;
37241;SDS011;23135;51.078;12.108;2023-10-31T12:27:51;0.00;;;0.00;;
37241;SDS011;23135;51.078;12.108;2023-10-31T12:30:17;0.22;;;0.00;;
37241;SDS011;23135;51.078;12.108;2023-10-31T12:32:45;0.60;;;0.00;;
37241;SDS011;23135;51.078;12.108;2023-10-31T12:35:22;0.00;;;0.00;;
37241;SDS011;23135;51.078;12.108;2023-10-31T12:37:49;0.13;;;0.00;;
37241;SDS011;23135;51.078;12.108;2023-10-31T12:40:20;3.08;;;0.00;;
37241;SDS011;23135;51.078;12.108;2023-10-31T12:42:47;0.00;;;0.00;;
37241;SDS011;23135;51.078;12.108;2023-10-31T12:45:14;0.00;;;0.00;;
37241;SDS011;23135;51.078;12.108;2023-10-31T12:47:42;0.00;;;0.00;;
37241;SDS011;23135;51.078;12.108;2023-10-31T12:50:09;0.00;;;0.00;;
37241;SDS011;23135;51.078;12.108;2023-10-31T12:52:47;0.00;;;0.00;;
37241;SDS011;23135;51.078;12.108;2023-10-31T12:55:13;0.03;;;0.00;;
37241;SDS011;23135;51.078;12.108;2023-10-31T12:57:42;0.00;;;0.00;;
37241;SDS011;23135;51.078;12.108;2023-10-31T13:00:09;0.00;;;0.00;;
37241;SDS011;23135;51.078;12.108;2023-10-31T13:02:38;0.00;;;0.00;;
37241;SDS011;23135;51.078;12.108;2023-10-31T13:05:10;0.00;;;0.00;;
37241;SDS011;23135;51.078;12.108;2023-10-31T13:07:47;1.98;;;0.00;;
37241;SDS011;23135;51.078;12.108;2023-10-31T13:10:14;0.00;;;0.00;;
37241;SDS011;23135;51.078;12.108;2023-10-31T13:12:45;1.48;;;0.00;;
37241;SDS011;23135;51.078;12.108;2023-10-31T13:15:15;0.00;;;0.00;;
37241;SDS011;23135;51.078;12.108;2023-10-31T13:17:43;0.00;;;0.00;;
37241;SDS011;23135;51.078;12.108;2023-10-31T13:20:09;0.45;;;0.00;;
37241;SDS011;23135;51.078;12.108;2023-10-31T13:22:36;0.00;;;0.00;;
37241;SDS011;23135;51.078;12.108;2023-10-31T13:25:03;0.00;;;0.00;;
37241;SDS011;23135;51.078;12.108;2023-10-31T13:27:33;0.57;;;0.00;;
37241;SDS011;23135;51.078;12.108;2023-10-31T13:30:04;0.80;;;0.00;;
37241;SDS011;23135;51.078;12.108;2023-10-31T13:32:30;1.20;;;0.00;;
37241;SDS011;23135;51.078;12.108;2023-10-31T13:34:56;0.17;;;0.17;;
37241;SDS011;23135;51.078;12.108;2023-10-31T13:37:22;0.15;;;0.00;;
37241;SDS011;23135;51.078;12.108;2023-10-31T13:39:47;0.30;;;0.00;;
37241;SDS011;23135;51.078;12.108;2023-10-31T13:42:13;0.32;;;0.00;;
37241;SDS011;23135;51.078;12.108;2023-10-31T13:44:42;0.00;;;0.00;;
37241;SDS011;23135;51.078;12.108;2023-10-31T13:47:09;0.20;;;0.00;;
37241;SDS011;23135;51.078;12.108;2023-10-31T13:49:35;0.75;;;0.00;;
37241;SDS011;23135;51.078;12.108;2023-10-31T13:52:03;0.88;;;0.00;;
37241;SDS011;23135;51.078;12.108;2023-10-31T13:54:31;1.27;;;0.00;;
37241;SDS011;23135;51.078;12.108;2023-10-31T13:56:58;0.20;;;0.00;;
37241;SDS011;23135;51.078;12.108;2023-10-31T13:59:25;0.00;;;0.00;;
37241;SDS011;23135;51.078;12.108;2023-10-31T14:01:50;0.45;;;0.00;;
37241;SDS011;23135;51.078;12.108;2023-10-31T14:04:16;1.75;;;0.00;;
37241;SDS011;23135;51.078;12.108;2023-10-31T14:06:43;0.10;;;0.00;;
37241;SDS011;23135;51.078;12.108;2023-10-31T14:09:09;1.25;;;0.00;;
37241;SDS011;23135;51.078;12.108;2023-10-31T14:11:36;1.92;;;0.00;;
37241;SDS011;23135;51.078;12.108;2023-10-31T14:14:02;0.00;;;0.00;;
37241;SDS011;23135;51.078;12.108;2023-10-31T14:16:32;0.25;;;0.00;;
37241;SDS011;23135;51.078;12.108;2023-10-31T14:18:58;0.22;;;0.00;;
37241;SDS011;23135;51.078;12.108;2023-10-31T14:21:24;1.75;;;0.10;;
37241;SDS011;23135;51.078;12.108;2023-10-31T14:23:51;0.03;;;0.00;;
37241;SDS011;23135;51.078;12.108;2023-10-31T14:26:20;1.17;;;0.00;;
37241;SDS011;23135;51.078;12.108;2023-10-31T14:28:46;0.20;;;0.00;;
37241;SDS011;23135;51.078;12.108;2023-10-31T14:31:12;0.00;;;0.00;;
37241;SDS011;23135;51.078;12.108;2023-10-31T14:33:38;0.00;;;0.00;;